AXM1194 WBKK-WMKK
Flight info
| Callsign | AXM1194 |
|---|---|
| Flight time | 2h 14m |
| Altitude | 36000 |
| Route | EGENU2F VIDIP M758 MABAL N892 VMR DCT GUPTA GUPTA3J |
| Aircraft | A320/M-SDE3FGHIRWY/LB1 |
Departure
| Time | 2026-04-21 12:20 |
|---|---|
| Airport | Kota Kinabalu International Airport (WBKK) |
Arrival
| Time | 2026-04-21 14:34 |
|---|---|
| Airport | Kuala Lumpur International Airport (WMKK) |
| Time | Latitude | Longitude | Altitude | Speed | Heading |
|---|---|---|---|---|---|
| 2026-04-21 11:46 | 5.92396 | 116.04959 | 29 ft | 0 kts | 63° |
| 2026-04-21 12:10 | 5.92395 | 116.04957 | 29 ft | 2 kts | 63° |
| 2026-04-21 12:10 | 5.92385 | 116.04937 | 29 ft | 2 kts | 64° |
| 2026-04-21 12:10 | 5.92376 | 116.04913 | 29 ft | 4 kts | 80° |
| 2026-04-21 12:11 | 5.92375 | 116.04887 | 29 ft | 4 kts | 114° |
| 2026-04-21 12:11 | 5.92390 | 116.04871 | 29 ft | 4 kts | 187° |
| 2026-04-21 12:11 | 5.92400 | 116.04873 | 29 ft | 1 kts | 203° |
| 2026-04-21 12:14 | 5.92383 | 116.04858 | 29 ft | 4 kts | 235° |
| 2026-04-21 12:14 | 5.92390 | 116.04832 | 29 ft | 7 kts | 300° |
| 2026-04-21 12:14 | 5.92415 | 116.04777 | 29 ft | 9 kts | 282° |
| 2026-04-21 12:14 | 5.92385 | 116.04738 | 29 ft | 7 kts | 203° |
| 2026-04-21 12:15 | 5.92330 | 116.04714 | 29 ft | 12 kts | 203° |
| 2026-04-21 12:15 | 5.92245 | 116.04677 | 29 ft | 13 kts | 202° |
| 2026-04-21 12:15 | 5.92168 | 116.04645 | 29 ft | 11 kts | 202° |
| 2026-04-21 12:15 | 5.92102 | 116.04618 | 29 ft | 9 kts | 202° |
| 2026-04-21 12:16 | 5.92046 | 116.04594 | 29 ft | 8 kts | 202° |
| 2026-04-21 12:16 | 5.91991 | 116.04571 | 29 ft | 9 kts | 202° |
| 2026-04-21 12:16 | 5.91923 | 116.04543 | 29 ft | 11 kts | 203° |
| 2026-04-21 12:16 | 5.91861 | 116.04516 | 29 ft | 9 kts | 203° |
| 2026-04-21 12:17 | 5.91807 | 116.04494 | 29 ft | 8 kts | 204° |
| 2026-04-21 12:17 | 5.91779 | 116.04460 | 29 ft | 6 kts | 261° |
| 2026-04-21 12:17 | 5.91794 | 116.04412 | 29 ft | 7 kts | 290° |
| 2026-04-21 12:17 | 5.91810 | 116.04372 | 29 ft | 5 kts | 292° |
| 2026-04-21 12:18 | 5.91823 | 116.04341 | 29 ft | 5 kts | 294° |
| 2026-04-21 12:18 | 5.91851 | 116.04325 | 29 ft | 4 kts | 12° |
| 2026-04-21 12:18 | 5.91871 | 116.04334 | 29 ft | 0 kts | 22° |
| 2026-04-21 12:19 | 5.91951 | 116.04367 | 29 ft | 44 kts | 23° |
| 2026-04-21 12:19 | 5.92453 | 116.04579 | 29 ft | 109 kts | 23° |
| 2026-04-21 12:19 | 5.93319 | 116.04946 | 29 ft | 159 kts | 22° |
| 2026-04-21 12:19 | 5.94395 | 116.05400 | 499 ft | 163 kts | 22° |
| 2026-04-21 12:20 | 5.95454 | 116.05840 | 1082 ft | 169 kts | 21° |
| 2026-04-21 12:20 | 5.96594 | 116.06269 | 1526 ft | 184 kts | 20° |
| 2026-04-21 12:20 | 5.97926 | 116.06359 | 1775 ft | 208 kts | 342° |
| 2026-04-21 12:20 | 5.99106 | 116.05418 | 2034 ft | 234 kts | 303° |
| 2026-04-21 12:21 | 5.99940 | 116.03915 | 2376 ft | 258 kts | 300° |
| 2026-04-21 12:21 | 6.00836 | 116.02294 | 3006 ft | 270 kts | 300° |
| 2026-04-21 12:21 | 6.01630 | 116.00571 | 3778 ft | 275 kts | 285° |
| 2026-04-21 12:21 | 6.01720 | 115.98651 | 4569 ft | 280 kts | 259° |
| 2026-04-21 12:22 | 6.01058 | 115.96807 | 5354 ft | 283 kts | 245° |
| 2026-04-21 12:22 | 6.00244 | 115.94998 | 6172 ft | 286 kts | 245° |
| 2026-04-21 12:22 | 5.99416 | 115.93166 | 6961 ft | 289 kts | 245° |
| 2026-04-21 12:22 | 5.98586 | 115.91325 | 7756 ft | 291 kts | 245° |
| 2026-04-21 12:23 | 5.97753 | 115.89470 | 8570 ft | 292 kts | 246° |
| 2026-04-21 12:23 | 5.96928 | 115.87627 | 9364 ft | 294 kts | 246° |
| 2026-04-21 12:23 | 5.96079 | 115.85724 | 10121 ft | 296 kts | 246° |
| 2026-04-21 12:23 | 5.95214 | 115.83787 | 10465 ft | 314 kts | 246° |
| 2026-04-21 12:24 | 5.94291 | 115.81719 | 10681 ft | 334 kts | 246° |
| 2026-04-21 12:24 | 5.93330 | 115.79563 | 11209 ft | 342 kts | 246° |
| 2026-04-21 12:24 | 5.92365 | 115.77399 | 11813 ft | 346 kts | 246° |
| 2026-04-21 12:24 | 5.91378 | 115.75178 | 12437 ft | 350 kts | 246° |
| 2026-04-21 12:25 | 5.90379 | 115.72933 | 13073 ft | 353 kts | 246° |
| 2026-04-21 12:25 | 5.89371 | 115.70677 | 13681 ft | 356 kts | 246° |
| 2026-04-21 12:25 | 5.88349 | 115.68391 | 14194 ft | 360 kts | 245° |
| 2026-04-21 12:25 | 5.87324 | 115.66091 | 14734 ft | 362 kts | 245° |
| 2026-04-21 12:26 | 5.86290 | 115.63777 | 15267 ft | 365 kts | 245° |
| 2026-04-21 12:26 | 5.85244 | 115.61440 | 15799 ft | 368 kts | 245° |
| 2026-04-21 12:26 | 5.84191 | 115.59088 | 16332 ft | 371 kts | 245° |
| 2026-04-21 12:26 | 5.83130 | 115.56717 | 16842 ft | 373 kts | 245° |
| 2026-04-21 12:27 | 5.82064 | 115.54330 | 17369 ft | 376 kts | 245° |
| 2026-04-21 12:27 | 5.80990 | 115.51922 | 17881 ft | 379 kts | 245° |
| 2026-04-21 12:27 | 5.79906 | 115.49497 | 18340 ft | 382 kts | 244° |
| 2026-04-21 12:27 | 5.78813 | 115.47052 | 18767 ft | 385 kts | 244° |
| 2026-04-21 12:28 | 5.77718 | 115.44593 | 19187 ft | 387 kts | 244° |
| 2026-04-21 12:28 | 5.76616 | 115.42121 | 19624 ft | 390 kts | 244° |
| 2026-04-21 12:28 | 5.75502 | 115.39628 | 20044 ft | 392 kts | 244° |
| 2026-04-21 12:28 | 5.74552 | 115.37045 | 20444 ft | 397 kts | 251° |
| 2026-04-21 12:29 | 5.73759 | 115.34380 | 20849 ft | 400 kts | 251° |
| 2026-04-21 12:29 | 5.72961 | 115.31700 | 21248 ft | 402 kts | 251° |
| 2026-04-21 12:29 | 5.72157 | 115.29000 | 21638 ft | 405 kts | 251° |
| 2026-04-21 12:29 | 5.71347 | 115.26284 | 22029 ft | 408 kts | 251° |
| 2026-04-21 12:30 | 5.70530 | 115.23546 | 22420 ft | 410 kts | 251° |
| 2026-04-21 12:30 | 5.69708 | 115.20796 | 22810 ft | 413 kts | 252° |
| 2026-04-21 12:30 | 5.68881 | 115.18022 | 23190 ft | 415 kts | 251° |
| 2026-04-21 12:30 | 5.68064 | 115.15232 | 23539 ft | 418 kts | 252° |
| 2026-04-21 12:31 | 5.67306 | 115.12404 | 23851 ft | 421 kts | 254° |
| 2026-04-21 12:31 | 5.66593 | 115.09552 | 24169 ft | 423 kts | 254° |
| 2026-04-21 12:31 | 5.65899 | 115.06674 | 24493 ft | 425 kts | 255° |
| 2026-04-21 12:31 | 5.65203 | 115.03785 | 24815 ft | 427 kts | 255° |
| 2026-04-21 12:32 | 5.64493 | 115.00884 | 25129 ft | 428 kts | 254° |
| 2026-04-21 12:32 | 5.63770 | 114.97976 | 25449 ft | 430 kts | 254° |
| 2026-04-21 12:32 | 5.63034 | 114.95059 | 25770 ft | 432 kts | 254° |
| 2026-04-21 12:32 | 5.62291 | 114.92132 | 26093 ft | 433 kts | 254° |
| 2026-04-21 12:33 | 5.61543 | 114.89193 | 26399 ft | 435 kts | 254° |
| 2026-04-21 12:33 | 5.60793 | 114.86245 | 26700 ft | 437 kts | 254° |
| 2026-04-21 12:33 | 5.60044 | 114.83281 | 27000 ft | 439 kts | 254° |
| 2026-04-21 12:33 | 5.59292 | 114.80310 | 27285 ft | 441 kts | 254° |
| 2026-04-21 12:34 | 5.58536 | 114.77322 | 27586 ft | 442 kts | 254° |
| 2026-04-21 12:34 | 5.57785 | 114.74363 | 27878 ft | 444 kts | 254° |
| 2026-04-21 12:34 | 5.57022 | 114.71355 | 28174 ft | 445 kts | 254° |
| 2026-04-21 12:34 | 5.56247 | 114.68299 | 28459 ft | 447 kts | 254° |
| 2026-04-21 12:35 | 5.55488 | 114.65304 | 28733 ft | 449 kts | 254° |
| 2026-04-21 12:35 | 5.54718 | 114.62260 | 29019 ft | 451 kts | 254° |
| 2026-04-21 12:35 | 5.53936 | 114.59161 | 29300 ft | 453 kts | 254° |
| 2026-04-21 12:35 | 5.53171 | 114.56133 | 29575 ft | 454 kts | 254° |
| 2026-04-21 12:36 | 5.52390 | 114.53052 | 29848 ft | 456 kts | 254° |
| 2026-04-21 12:36 | 5.51605 | 114.49965 | 30080 ft | 457 kts | 254° |
| 2026-04-21 12:36 | 5.50815 | 114.46866 | 30311 ft | 458 kts | 254° |
| 2026-04-21 12:36 | 5.50024 | 114.43763 | 30544 ft | 459 kts | 254° |
| 2026-04-21 12:37 | 5.49232 | 114.40652 | 30773 ft | 460 kts | 254° |
| 2026-04-21 12:37 | 5.48441 | 114.37536 | 31000 ft | 461 kts | 254° |
| 2026-04-21 12:37 | 5.47648 | 114.34421 | 31276 ft | 461 kts | 254° |
| 2026-04-21 12:37 | 5.46858 | 114.31313 | 31624 ft | 459 kts | 254° |
| 2026-04-21 12:38 | 5.46072 | 114.28212 | 31953 ft | 457 kts | 255° |
| 2026-04-21 12:38 | 5.45291 | 114.25125 | 32288 ft | 456 kts | 255° |
| 2026-04-21 12:38 | 5.44511 | 114.22048 | 32616 ft | 454 kts | 255° |
| 2026-04-21 12:38 | 5.43722 | 114.18941 | 32948 ft | 453 kts | 255° |
| 2026-04-21 12:39 | 5.42955 | 114.15923 | 33272 ft | 452 kts | 255° |
| 2026-04-21 12:39 | 5.42179 | 114.12871 | 33602 ft | 451 kts | 255° |
| 2026-04-21 12:39 | 5.41405 | 114.09831 | 33924 ft | 449 kts | 255° |
| 2026-04-21 12:39 | 5.40631 | 114.06800 | 34208 ft | 448 kts | 255° |
| 2026-04-21 12:40 | 5.39855 | 114.03775 | 34467 ft | 447 kts | 255° |
| 2026-04-21 12:40 | 5.39080 | 114.00750 | 34715 ft | 446 kts | 255° |
| 2026-04-21 12:40 | 5.38307 | 113.97733 | 34961 ft | 446 kts | 255° |
| 2026-04-21 12:40 | 5.37536 | 113.94724 | 35200 ft | 445 kts | 255° |
| 2026-04-21 12:41 | 5.36766 | 113.91717 | 35442 ft | 444 kts | 255° |
| 2026-04-21 12:41 | 5.36001 | 113.88724 | 35670 ft | 444 kts | 255° |
| 2026-04-21 12:41 | 5.35234 | 113.85725 | 35818 ft | 444 kts | 255° |
| 2026-04-21 12:42 | 5.33712 | 113.79763 | 35859 ft | 438 kts | 255° |
| 2026-04-21 12:42 | 5.32200 | 113.73852 | 35860 ft | 437 kts | 254° |
| 2026-04-21 12:43 | 5.30677 | 113.67940 | 35856 ft | 438 kts | 254° |
| 2026-04-21 12:43 | 5.29157 | 113.62024 | 35858 ft | 438 kts | 254° |
| 2026-04-21 12:44 | 5.27647 | 113.56109 | 35863 ft | 438 kts | 254° |
| 2026-04-21 12:44 | 5.26127 | 113.50194 | 35859 ft | 438 kts | 254° |
| 2026-04-21 12:45 | 5.24599 | 113.44274 | 35862 ft | 438 kts | 254° |
| 2026-04-21 12:45 | 5.23082 | 113.38363 | 35857 ft | 438 kts | 254° |
| 2026-04-21 12:46 | 5.21573 | 113.32475 | 35862 ft | 438 kts | 254° |
| 2026-04-21 12:46 | 5.20057 | 113.26556 | 35854 ft | 438 kts | 254° |
| 2026-04-21 12:47 | 5.18528 | 113.20649 | 35859 ft | 438 kts | 254° |
| 2026-04-21 12:47 | 5.17001 | 113.14727 | 35859 ft | 438 kts | 254° |
| 2026-04-21 12:48 | 5.15731 | 113.09761 | 35863 ft | 438 kts | 254° |
| 2026-04-21 12:48 | 5.14214 | 113.03845 | 35864 ft | 438 kts | 254° |
| 2026-04-21 12:49 | 5.12698 | 112.97971 | 35856 ft | 438 kts | 254° |
| 2026-04-21 12:49 | 5.11167 | 112.92048 | 35866 ft | 438 kts | 254° |
| 2026-04-21 12:50 | 5.09641 | 112.86131 | 35866 ft | 438 kts | 254° |
| 2026-04-21 12:50 | 5.08114 | 112.80211 | 35871 ft | 438 kts | 254° |
| 2026-04-21 12:51 | 5.06587 | 112.74296 | 35871 ft | 438 kts | 254° |
| 2026-04-21 12:51 | 5.05057 | 112.68376 | 35875 ft | 438 kts | 254° |
| 2026-04-21 12:52 | 5.03531 | 112.62462 | 35876 ft | 438 kts | 254° |
| 2026-04-21 12:52 | 5.02010 | 112.56542 | 35876 ft | 438 kts | 254° |
| 2026-04-21 12:53 | 5.00483 | 112.50620 | 35873 ft | 438 kts | 254° |
| 2026-04-21 12:53 | 4.98951 | 112.44709 | 35875 ft | 438 kts | 254° |
| 2026-04-21 12:54 | 4.97418 | 112.38789 | 35878 ft | 438 kts | 254° |
| 2026-04-21 12:54 | 4.95885 | 112.32874 | 35877 ft | 438 kts | 254° |
| 2026-04-21 12:55 | 4.94353 | 112.26964 | 35875 ft | 438 kts | 254° |
| 2026-04-21 12:55 | 4.92825 | 112.21051 | 35877 ft | 438 kts | 254° |
| 2026-04-21 12:56 | 4.91289 | 112.15145 | 35871 ft | 438 kts | 254° |
| 2026-04-21 12:56 | 4.89763 | 112.09236 | 35871 ft | 438 kts | 254° |
| 2026-04-21 12:57 | 4.88235 | 112.03333 | 35871 ft | 437 kts | 254° |
| 2026-04-21 12:57 | 4.86701 | 111.97432 | 35875 ft | 437 kts | 254° |
| 2026-04-21 12:58 | 4.85180 | 111.91562 | 35873 ft | 437 kts | 254° |
| 2026-04-21 12:58 | 4.83657 | 111.85662 | 35867 ft | 437 kts | 254° |
| 2026-04-21 12:59 | 4.82131 | 111.79726 | 35870 ft | 437 kts | 255° |
| 2026-04-21 12:59 | 4.80639 | 111.73821 | 35869 ft | 437 kts | 255° |
| 2026-04-21 13:00 | 4.79158 | 111.67952 | 35872 ft | 437 kts | 255° |
| 2026-04-21 13:00 | 4.77659 | 111.62045 | 35874 ft | 437 kts | 255° |
| 2026-04-21 13:01 | 4.76151 | 111.56141 | 35874 ft | 437 kts | 255° |
| 2026-04-21 13:01 | 4.74649 | 111.50233 | 35875 ft | 437 kts | 255° |
| 2026-04-21 13:02 | 4.73150 | 111.44326 | 35870 ft | 437 kts | 255° |
| 2026-04-21 13:02 | 4.70902 | 111.35473 | 35874 ft | 437 kts | 255° |
| 2026-04-21 13:03 | 4.69397 | 111.29571 | 35873 ft | 437 kts | 255° |
| 2026-04-21 13:03 | 4.67894 | 111.23661 | 35873 ft | 437 kts | 255° |
| 2026-04-21 13:04 | 4.66390 | 111.17757 | 35887 ft | 437 kts | 255° |
| 2026-04-21 13:04 | 4.64895 | 111.11845 | 35887 ft | 437 kts | 255° |
| 2026-04-21 13:05 | 4.63390 | 111.05937 | 35884 ft | 437 kts | 255° |
| 2026-04-21 13:05 | 4.61873 | 111.00028 | 35886 ft | 438 kts | 255° |
| 2026-04-21 13:06 | 4.60361 | 110.94121 | 35885 ft | 438 kts | 255° |
| 2026-04-21 13:06 | 4.58855 | 110.88214 | 35884 ft | 438 kts | 255° |
| 2026-04-21 13:07 | 4.57351 | 110.82293 | 35884 ft | 438 kts | 255° |
| 2026-04-21 13:07 | 4.55847 | 110.76378 | 35889 ft | 438 kts | 255° |
| 2026-04-21 13:08 | 4.54340 | 110.70460 | 35890 ft | 438 kts | 255° |
| 2026-04-21 13:08 | 4.52826 | 110.64546 | 35887 ft | 438 kts | 255° |
| 2026-04-21 13:09 | 4.51317 | 110.58673 | 35886 ft | 438 kts | 255° |
| 2026-04-21 13:09 | 4.49805 | 110.52754 | 35886 ft | 438 kts | 255° |
| 2026-04-21 13:10 | 4.48297 | 110.46829 | 35880 ft | 438 kts | 255° |
| 2026-04-21 13:10 | 4.46788 | 110.40905 | 35876 ft | 438 kts | 255° |
| 2026-04-21 13:11 | 4.45271 | 110.34984 | 35883 ft | 439 kts | 255° |
| 2026-04-21 13:11 | 4.43752 | 110.29068 | 35889 ft | 439 kts | 255° |
| 2026-04-21 13:12 | 4.42231 | 110.23136 | 35892 ft | 439 kts | 255° |
| 2026-04-21 13:12 | 4.40722 | 110.17205 | 35887 ft | 439 kts | 255° |
| 2026-04-21 13:13 | 4.39195 | 110.11277 | 35892 ft | 439 kts | 255° |
| 2026-04-21 13:13 | 4.37672 | 110.05351 | 35892 ft | 439 kts | 255° |
| 2026-04-21 13:14 | 4.36155 | 109.99423 | 35897 ft | 440 kts | 255° |
| 2026-04-21 13:14 | 4.34634 | 109.93489 | 35898 ft | 439 kts | 255° |
| 2026-04-21 13:15 | 4.33110 | 109.87558 | 35894 ft | 439 kts | 255° |
| 2026-04-21 13:15 | 4.31588 | 109.81626 | 35897 ft | 439 kts | 255° |
| 2026-04-21 13:16 | 4.30063 | 109.75694 | 35899 ft | 440 kts | 255° |
| 2026-04-21 13:16 | 4.28539 | 109.69762 | 35895 ft | 440 kts | 255° |
| 2026-04-21 13:17 | 4.27025 | 109.63829 | 35895 ft | 439 kts | 255° |
| 2026-04-21 13:17 | 4.25503 | 109.57899 | 35890 ft | 440 kts | 255° |
| 2026-04-21 13:18 | 4.23963 | 109.51974 | 35892 ft | 440 kts | 255° |
| 2026-04-21 13:18 | 4.22405 | 109.46046 | 35893 ft | 440 kts | 254° |
| 2026-04-21 13:19 | 4.20853 | 109.40121 | 35892 ft | 440 kts | 255° |
| 2026-04-21 13:19 | 4.19299 | 109.34194 | 35886 ft | 440 kts | 255° |
| 2026-04-21 13:20 | 4.17749 | 109.28263 | 35889 ft | 440 kts | 255° |
| 2026-04-21 13:20 | 4.16202 | 109.22340 | 35888 ft | 439 kts | 255° |
| 2026-04-21 13:21 | 4.14666 | 109.16460 | 35887 ft | 439 kts | 255° |
| 2026-04-21 13:21 | 4.13120 | 109.10544 | 35887 ft | 439 kts | 255° |
| 2026-04-21 13:22 | 4.11572 | 109.04621 | 35882 ft | 439 kts | 254° |
| 2026-04-21 13:22 | 4.10016 | 108.98700 | 35890 ft | 439 kts | 254° |
| 2026-04-21 13:23 | 4.08466 | 108.92782 | 35885 ft | 439 kts | 254° |
| 2026-04-21 13:23 | 4.06913 | 108.86864 | 35886 ft | 439 kts | 254° |
| 2026-04-21 13:24 | 4.05362 | 108.80942 | 35887 ft | 440 kts | 254° |
| 2026-04-21 13:24 | 4.03808 | 108.75015 | 35883 ft | 440 kts | 254° |
| 2026-04-21 13:25 | 4.02520 | 108.70090 | 35892 ft | 440 kts | 254° |
| 2026-04-21 13:25 | 4.00711 | 108.63159 | 35893 ft | 440 kts | 254° |
| 2026-04-21 13:26 | 3.99167 | 108.57228 | 35899 ft | 440 kts | 254° |
| 2026-04-21 13:26 | 3.97625 | 108.51299 | 35897 ft | 440 kts | 254° |
| 2026-04-21 13:27 | 3.96084 | 108.45363 | 35896 ft | 440 kts | 254° |
| 2026-04-21 13:27 | 3.94543 | 108.39424 | 35892 ft | 440 kts | 254° |
| 2026-04-21 13:28 | 3.92994 | 108.33491 | 35889 ft | 441 kts | 254° |
| 2026-04-21 13:28 | 3.91440 | 108.27547 | 35890 ft | 441 kts | 254° |
| 2026-04-21 13:29 | 3.89890 | 108.21611 | 35883 ft | 441 kts | 255° |
| 2026-04-21 13:29 | 3.88340 | 108.15671 | 35889 ft | 441 kts | 255° |
| 2026-04-21 13:30 | 3.86789 | 108.09727 | 35888 ft | 441 kts | 255° |
| 2026-04-21 13:30 | 3.85501 | 108.04787 | 35892 ft | 441 kts | 255° |
| 2026-04-21 13:31 | 3.83951 | 107.98838 | 35890 ft | 441 kts | 255° |
| 2026-04-21 13:31 | 3.82398 | 107.92888 | 35892 ft | 441 kts | 255° |
| 2026-04-21 13:32 | 3.80843 | 107.86945 | 35892 ft | 441 kts | 255° |
| 2026-04-21 13:32 | 3.79289 | 107.81002 | 35895 ft | 441 kts | 255° |
| 2026-04-21 13:33 | 3.77738 | 107.75058 | 35894 ft | 441 kts | 255° |
| 2026-04-21 13:33 | 3.76188 | 107.69114 | 35895 ft | 441 kts | 255° |
| 2026-04-21 13:34 | 3.74630 | 107.63171 | 35897 ft | 441 kts | 255° |
| 2026-04-21 13:34 | 3.73072 | 107.57235 | 35895 ft | 441 kts | 255° |
| 2026-04-21 13:35 | 3.71516 | 107.51298 | 35897 ft | 441 kts | 255° |
| 2026-04-21 13:35 | 3.69962 | 107.45358 | 35890 ft | 441 kts | 255° |
| 2026-04-21 13:36 | 3.68418 | 107.39465 | 35892 ft | 441 kts | 255° |
| 2026-04-21 13:36 | 3.66853 | 107.33489 | 35891 ft | 441 kts | 255° |
| 2026-04-21 13:37 | 3.65300 | 107.27559 | 35899 ft | 440 kts | 255° |
| 2026-04-21 13:37 | 3.63747 | 107.21630 | 35898 ft | 440 kts | 255° |
| 2026-04-21 13:38 | 3.62203 | 107.15741 | 35893 ft | 440 kts | 255° |
| 2026-04-21 13:38 | 3.60647 | 107.09809 | 35894 ft | 440 kts | 255° |
| 2026-04-21 13:39 | 3.59091 | 107.03881 | 35894 ft | 441 kts | 255° |
| 2026-04-21 13:39 | 3.57537 | 106.97945 | 35890 ft | 441 kts | 255° |
| 2026-04-21 13:40 | 3.56136 | 106.91933 | 35896 ft | 441 kts | 263° |
| 2026-04-21 13:40 | 3.55798 | 106.85809 | 35893 ft | 441 kts | 266° |
| 2026-04-21 13:41 | 3.55489 | 106.79720 | 35891 ft | 441 kts | 266° |
| 2026-04-21 13:41 | 3.55162 | 106.73587 | 35887 ft | 441 kts | 266° |
| 2026-04-21 13:42 | 3.54838 | 106.67454 | 35888 ft | 441 kts | 266° |
| 2026-04-21 13:42 | 3.54524 | 106.61315 | 35885 ft | 442 kts | 266° |
| 2026-04-21 13:43 | 3.54205 | 106.55178 | 35888 ft | 442 kts | 266° |
| 2026-04-21 13:43 | 3.53884 | 106.49023 | 35896 ft | 442 kts | 266° |
| 2026-04-21 13:44 | 3.53569 | 106.42881 | 35885 ft | 442 kts | 266° |
| 2026-04-21 13:44 | 3.53255 | 106.36734 | 35892 ft | 442 kts | 266° |
| 2026-04-21 13:45 | 3.52939 | 106.30589 | 35889 ft | 442 kts | 266° |
| 2026-04-21 13:45 | 3.52630 | 106.24439 | 35888 ft | 442 kts | 266° |
| 2026-04-21 13:46 | 3.52321 | 106.18295 | 35894 ft | 442 kts | 266° |
| 2026-04-21 13:46 | 3.52008 | 106.12149 | 35886 ft | 442 kts | 266° |
| 2026-04-21 13:47 | 3.51698 | 106.06003 | 35894 ft | 442 kts | 266° |
| 2026-04-21 13:47 | 3.51383 | 105.99858 | 35895 ft | 442 kts | 266° |
| 2026-04-21 13:48 | 3.51063 | 105.93712 | 35891 ft | 442 kts | 266° |
| 2026-04-21 13:48 | 3.50747 | 105.87556 | 35894 ft | 443 kts | 266° |
| 2026-04-21 13:49 | 3.50429 | 105.81408 | 35893 ft | 443 kts | 266° |
| 2026-04-21 13:49 | 3.50119 | 105.75252 | 35893 ft | 443 kts | 266° |
| 2026-04-21 13:50 | 3.49811 | 105.69094 | 35892 ft | 443 kts | 267° |
| 2026-04-21 13:50 | 3.49509 | 105.62934 | 35894 ft | 443 kts | 267° |
| 2026-04-21 13:51 | 3.49198 | 105.56771 | 35894 ft | 443 kts | 266° |
| 2026-04-21 13:51 | 3.48877 | 105.50607 | 35890 ft | 443 kts | 266° |
| 2026-04-21 13:52 | 3.48570 | 105.44444 | 35888 ft | 444 kts | 267° |
| 2026-04-21 13:52 | 3.48264 | 105.38275 | 35893 ft | 444 kts | 266° |
| 2026-04-21 13:53 | 3.47950 | 105.32102 | 35892 ft | 444 kts | 266° |
| 2026-04-21 13:53 | 3.47616 | 105.25934 | 35893 ft | 444 kts | 263° |
| 2026-04-21 13:54 | 3.45969 | 105.20024 | 35890 ft | 442 kts | 243° |
| 2026-04-21 13:54 | 3.42500 | 105.14980 | 35888 ft | 442 kts | 230° |
| 2026-04-21 13:55 | 3.38610 | 105.10211 | 35888 ft | 442 kts | 231° |
| 2026-04-21 13:55 | 3.34738 | 105.05426 | 35890 ft | 443 kts | 231° |
| 2026-04-21 13:56 | 3.30861 | 105.00637 | 35890 ft | 443 kts | 231° |
| 2026-04-21 13:56 | 3.26982 | 104.95853 | 35892 ft | 443 kts | 231° |
| 2026-04-21 13:57 | 3.23120 | 104.91097 | 35894 ft | 443 kts | 231° |
| 2026-04-21 13:57 | 3.19235 | 104.86312 | 35892 ft | 443 kts | 231° |
| 2026-04-21 13:58 | 3.15349 | 104.81532 | 35894 ft | 443 kts | 230° |
| 2026-04-21 13:58 | 3.11461 | 104.76752 | 35896 ft | 443 kts | 230° |
| 2026-04-21 13:59 | 3.07575 | 104.71966 | 35897 ft | 443 kts | 230° |
| 2026-04-21 13:59 | 3.03694 | 104.67182 | 35901 ft | 443 kts | 231° |
| 2026-04-21 14:00 | 2.99800 | 104.62402 | 35900 ft | 443 kts | 230° |
| 2026-04-21 14:00 | 2.95896 | 104.57636 | 35901 ft | 443 kts | 230° |
| 2026-04-21 14:01 | 2.91992 | 104.52878 | 35905 ft | 443 kts | 230° |
| 2026-04-21 14:01 | 2.88088 | 104.48115 | 35903 ft | 443 kts | 230° |
| 2026-04-21 14:02 | 2.84199 | 104.43335 | 35903 ft | 443 kts | 231° |
| 2026-04-21 14:03 | 2.78401 | 104.36135 | 35901 ft | 443 kts | 231° |
| 2026-04-21 14:03 | 2.74537 | 104.31339 | 35895 ft | 443 kts | 231° |
| 2026-04-21 14:04 | 2.70667 | 104.26542 | 35897 ft | 443 kts | 231° |
| 2026-04-21 14:04 | 2.66787 | 104.21748 | 35899 ft | 443 kts | 231° |
| 2026-04-21 14:05 | 2.62900 | 104.16960 | 35901 ft | 443 kts | 231° |
| 2026-04-21 14:05 | 2.59025 | 104.12161 | 35898 ft | 444 kts | 231° |
| 2026-04-21 14:06 | 2.55148 | 104.07360 | 35894 ft | 444 kts | 231° |
| 2026-04-21 14:06 | 2.51264 | 104.02563 | 35894 ft | 444 kts | 231° |
| 2026-04-21 14:07 | 2.47383 | 103.97764 | 35891 ft | 444 kts | 231° |
| 2026-04-21 14:07 | 2.43507 | 103.92963 | 35888 ft | 444 kts | 231° |
| 2026-04-21 14:08 | 2.39873 | 103.87984 | 35882 ft | 443 kts | 242° |
| 2026-04-21 14:08 | 2.37898 | 103.82174 | 35884 ft | 443 kts | 260° |
| 2026-04-21 14:09 | 2.36813 | 103.76110 | 35883 ft | 443 kts | 260° |
| 2026-04-21 14:09 | 2.35712 | 103.70033 | 35888 ft | 444 kts | 259° |
| 2026-04-21 14:10 | 2.34598 | 103.63964 | 35891 ft | 444 kts | 259° |
| 2026-04-21 14:10 | 2.33481 | 103.57889 | 35898 ft | 444 kts | 259° |
| 2026-04-21 14:11 | 2.32374 | 103.51808 | 35904 ft | 445 kts | 259° |
| 2026-04-21 14:11 | 2.31817 | 103.48761 | 35775 ft | 446 kts | 259° |
| 2026-04-21 14:11 | 2.31264 | 103.45750 | 35273 ft | 445 kts | 259° |
| 2026-04-21 14:11 | 2.30707 | 103.42706 | 34744 ft | 444 kts | 259° |
| 2026-04-21 14:12 | 2.30155 | 103.39679 | 34212 ft | 443 kts | 259° |
| 2026-04-21 14:12 | 2.29603 | 103.36648 | 33632 ft | 442 kts | 259° |
| 2026-04-21 14:12 | 2.29054 | 103.33639 | 33097 ft | 439 kts | 259° |
| 2026-04-21 14:12 | 2.28503 | 103.30646 | 32572 ft | 437 kts | 259° |
| 2026-04-21 14:13 | 2.27954 | 103.27662 | 32050 ft | 435 kts | 260° |
| 2026-04-21 14:13 | 2.27593 | 103.25697 | 31709 ft | 433 kts | 260° |
| 2026-04-21 14:13 | 2.27041 | 103.22699 | 31181 ft | 432 kts | 260° |
| 2026-04-21 14:13 | 2.26506 | 103.19791 | 30689 ft | 430 kts | 260° |
| 2026-04-21 14:14 | 2.25971 | 103.16858 | 30195 ft | 428 kts | 261° |
| 2026-04-21 14:14 | 2.25440 | 103.13937 | 29656 ft | 426 kts | 261° |
| 2026-04-21 14:14 | 2.24911 | 103.11038 | 29164 ft | 422 kts | 260° |
| 2026-04-21 14:14 | 2.24386 | 103.08167 | 28708 ft | 418 kts | 260° |
| 2026-04-21 14:15 | 2.23866 | 103.05326 | 28244 ft | 414 kts | 260° |
| 2026-04-21 14:15 | 2.23351 | 103.02512 | 27784 ft | 410 kts | 260° |
| 2026-04-21 14:15 | 2.22840 | 102.99720 | 27334 ft | 406 kts | 260° |
| 2026-04-21 14:15 | 2.22334 | 102.96957 | 26868 ft | 403 kts | 260° |
| 2026-04-21 14:16 | 2.21866 | 102.94206 | 26409 ft | 400 kts | 265° |
| 2026-04-21 14:16 | 2.21971 | 102.91479 | 25958 ft | 387 kts | 282° |
| 2026-04-21 14:16 | 2.22575 | 102.88869 | 25521 ft | 383 kts | 284° |
| 2026-04-21 14:16 | 2.23197 | 102.86291 | 25091 ft | 380 kts | 284° |
| 2026-04-21 14:17 | 2.23820 | 102.83736 | 24678 ft | 377 kts | 284° |
| 2026-04-21 14:17 | 2.24440 | 102.81196 | 24244 ft | 375 kts | 284° |
| 2026-04-21 14:17 | 2.25059 | 102.78667 | 23838 ft | 373 kts | 284° |
| 2026-04-21 14:17 | 2.25669 | 102.76158 | 23418 ft | 371 kts | 284° |
| 2026-04-21 14:18 | 2.26274 | 102.73661 | 22925 ft | 368 kts | 284° |
| 2026-04-21 14:18 | 2.26870 | 102.71180 | 22443 ft | 366 kts | 284° |
| 2026-04-21 14:18 | 2.27465 | 102.68721 | 21971 ft | 363 kts | 284° |
| 2026-04-21 14:18 | 2.28057 | 102.66275 | 21499 ft | 360 kts | 284° |
| 2026-04-21 14:19 | 2.28643 | 102.63850 | 21041 ft | 357 kts | 284° |
| 2026-04-21 14:19 | 2.29222 | 102.61447 | 20589 ft | 355 kts | 284° |
| 2026-04-21 14:19 | 2.29800 | 102.59061 | 20141 ft | 352 kts | 284° |
| 2026-04-21 14:19 | 2.30378 | 102.56686 | 19701 ft | 350 kts | 284° |
| 2026-04-21 14:20 | 2.30950 | 102.54336 | 19264 ft | 347 kts | 284° |
| 2026-04-21 14:20 | 2.31516 | 102.51995 | 18839 ft | 345 kts | 284° |
| 2026-04-21 14:20 | 2.32072 | 102.49680 | 18420 ft | 342 kts | 284° |
| 2026-04-21 14:20 | 2.32629 | 102.47373 | 17963 ft | 340 kts | 284° |
| 2026-04-21 14:21 | 2.33186 | 102.45081 | 17060 ft | 343 kts | 284° |
| 2026-04-21 14:21 | 2.33760 | 102.42718 | 15793 ft | 356 kts | 284° |
| 2026-04-21 14:21 | 2.34348 | 102.40283 | 14707 ft | 363 kts | 284° |
| 2026-04-21 14:21 | 2.34929 | 102.37878 | 14327 ft | 346 kts | 284° |
| 2026-04-21 14:22 | 2.35480 | 102.35590 | 13874 ft | 335 kts | 284° |
| 2026-04-21 14:22 | 2.36013 | 102.33377 | 13640 ft | 317 kts | 284° |
| 2026-04-21 14:22 | 2.36520 | 102.31278 | 13268 ft | 305 kts | 284° |
| 2026-04-21 14:22 | 2.37013 | 102.29248 | 12906 ft | 295 kts | 284° |
| 2026-04-21 14:23 | 2.37482 | 102.27315 | 12558 ft | 285 kts | 284° |
| 2026-04-21 14:23 | 2.37954 | 102.25372 | 12206 ft | 284 kts | 284° |
| 2026-04-21 14:23 | 2.38414 | 102.23475 | 11861 ft | 285 kts | 284° |
| 2026-04-21 14:23 | 2.38879 | 102.21553 | 11497 ft | 285 kts | 284° |
| 2026-04-21 14:24 | 2.39345 | 102.19619 | 11142 ft | 286 kts | 284° |
| 2026-04-21 14:24 | 2.39809 | 102.17686 | 10777 ft | 287 kts | 284° |
| 2026-04-21 14:24 | 2.40275 | 102.15751 | 10526 ft | 283 kts | 284° |
| 2026-04-21 14:24 | 2.40739 | 102.13829 | 10133 ft | 286 kts | 284° |
| 2026-04-21 14:25 | 2.41207 | 102.11893 | 9738 ft | 287 kts | 284° |
| 2026-04-21 14:25 | 2.41677 | 102.09949 | 9330 ft | 288 kts | 284° |
| 2026-04-21 14:25 | 2.42148 | 102.08005 | 8923 ft | 288 kts | 284° |
| 2026-04-21 14:25 | 2.42620 | 102.06058 | 8522 ft | 287 kts | 284° |
| 2026-04-21 14:26 | 2.43090 | 102.04120 | 8115 ft | 287 kts | 284° |
| 2026-04-21 14:26 | 2.43560 | 102.02177 | 7700 ft | 287 kts | 284° |
| 2026-04-21 14:26 | 2.44029 | 102.00236 | 7285 ft | 287 kts | 284° |
| 2026-04-21 14:26 | 2.44497 | 101.98293 | 6851 ft | 288 kts | 284° |
| 2026-04-21 14:27 | 2.44965 | 101.96349 | 6425 ft | 288 kts | 284° |
| 2026-04-21 14:27 | 2.45434 | 101.94404 | 5949 ft | 285 kts | 284° |
| 2026-04-21 14:27 | 2.45888 | 101.92521 | 5509 ft | 273 kts | 284° |
| 2026-04-21 14:27 | 2.46325 | 101.90712 | 5098 ft | 265 kts | 283° |
| 2026-04-21 14:28 | 2.46779 | 101.88916 | 4673 ft | 266 kts | 289° |
| 2026-04-21 14:28 | 2.47601 | 101.87441 | 4278 ft | 266 kts | 308° |
| 2026-04-21 14:28 | 2.48810 | 101.86046 | 3855 ft | 265 kts | 312° |
| 2026-04-21 14:28 | 2.50075 | 101.84707 | 3452 ft | 264 kts | 313° |
| 2026-04-21 14:29 | 2.51352 | 101.83392 | 3035 ft | 262 kts | 314° |
| 2026-04-21 14:29 | 2.52623 | 101.82091 | 2630 ft | 262 kts | 315° |
| 2026-04-21 14:29 | 2.54046 | 101.81012 | 2477 ft | 249 kts | 327° |
| 2026-04-21 14:29 | 2.55436 | 101.80084 | 2477 ft | 232 kts | 326° |
| 2026-04-21 14:30 | 2.56751 | 101.79197 | 2478 ft | 222 kts | 326° |
| 2026-04-21 14:30 | 2.57992 | 101.78364 | 2478 ft | 208 kts | 326° |
| 2026-04-21 14:30 | 2.59163 | 101.77578 | 2476 ft | 199 kts | 326° |
| 2026-04-21 14:30 | 2.60319 | 101.76804 | 2373 ft | 198 kts | 326° |
| 2026-04-21 14:31 | 2.61418 | 101.76066 | 2167 ft | 184 kts | 326° |
| 2026-04-21 14:31 | 2.62454 | 101.75372 | 1928 ft | 174 kts | 326° |
| 2026-04-21 14:31 | 2.63432 | 101.74716 | 1723 ft | 164 kts | 326° |
| 2026-04-21 14:31 | 2.64363 | 101.74092 | 1508 ft | 158 kts | 327° |
| 2026-04-21 14:32 | 2.65266 | 101.73487 | 1306 ft | 155 kts | 327° |
| 2026-04-21 14:32 | 2.66162 | 101.72886 | 1112 ft | 154 kts | 327° |
| 2026-04-21 14:32 | 2.67045 | 101.72294 | 919 ft | 153 kts | 326° |
| 2026-04-21 14:32 | 2.67333 | 101.72101 | 866 ft | 153 kts | 326° |
| 2026-04-21 14:33 | 2.67555 | 101.71952 | 809 ft | 152 kts | 326° |
| 2026-04-21 14:33 | 2.68431 | 101.71363 | 660 ft | 151 kts | 328° |
| 2026-04-21 14:33 | 2.69304 | 101.70777 | 433 ft | 151 kts | 327° |
| 2026-04-21 14:33 | 2.70166 | 101.70208 | 271 ft | 149 kts | 326° |
| 2026-04-21 14:34 | 2.71001 | 101.69638 | 85 ft | 146 kts | 327° |
| 2026-04-21 14:34 | 2.71796 | 101.69107 | 49 ft | 128 kts | 326° |
| 2026-04-21 14:34 | 2.72456 | 101.68671 | 37 ft | 92 kts | 327° |
| 2026-04-21 14:34 | 2.72822 | 101.68423 | 40 ft | 27 kts | 327° |
| 2026-04-21 14:35 | 2.72947 | 101.68401 | 39 ft | 12 kts | 358° |
| 2026-04-21 14:35 | 2.73029 | 101.68394 | 38 ft | 12 kts | 352° |
| 2026-04-21 14:35 | 2.73111 | 101.68383 | 38 ft | 12 kts | 352° |
| 2026-04-21 14:35 | 2.73176 | 101.68374 | 38 ft | 6 kts | 352° |
| 2026-04-21 14:36 | 2.73213 | 101.68366 | 37 ft | 5 kts | 336° |
| 2026-04-21 14:36 | 2.73252 | 101.68339 | 38 ft | 10 kts | 327° |
| 2026-04-21 14:36 | 2.73314 | 101.68299 | 38 ft | 10 kts | 327° |
| 2026-04-21 14:36 | 2.73368 | 101.68264 | 38 ft | 9 kts | 327° |
| 2026-04-21 14:37 | 2.73415 | 101.68231 | 38 ft | 8 kts | 321° |
| 2026-04-21 14:37 | 2.73456 | 101.68202 | 38 ft | 7 kts | 325° |
| 2026-04-21 14:37 | 2.73498 | 101.68173 | 38 ft | 8 kts | 326° |
| 2026-04-21 14:37 | 2.73549 | 101.68139 | 37 ft | 10 kts | 327° |
| 2026-04-21 14:38 | 2.73619 | 101.68095 | 38 ft | 12 kts | 327° |
| 2026-04-21 14:38 | 2.73670 | 101.68104 | 38 ft | 8 kts | 54° |
| 2026-04-21 14:38 | 2.73694 | 101.68140 | 40 ft | 5 kts | 56° |
| 2026-04-21 14:38 | 2.73736 | 101.68203 | 41 ft | 16 kts | 56° |
| 2026-04-21 14:39 | 2.73795 | 101.68290 | 42 ft | 13 kts | 56° |
| 2026-04-21 14:39 | 2.73847 | 101.68368 | 42 ft | 13 kts | 56° |
| 2026-04-21 14:39 | 2.73891 | 101.68397 | 42 ft | 7 kts | 355° |
| 2026-04-21 14:39 | 2.73924 | 101.68372 | 42 ft | 5 kts | 326° |
| 2026-04-21 14:40 | 2.73951 | 101.68354 | 42 ft | 3 kts | 326° |
| 2026-04-21 14:40 | 2.73953 | 101.68353 | 42 ft | 0 kts | 326° |